Terminal Aerodrome Forecast
Issued by NWS

Home | Current Version | Previous Version | Graphics & Text | Print | Product List | Glossary On
Versions: 1 2 3 4 5 6 7 8 9 10 11 12 13 14 15 16 17 18 19
000
FTUS43 KBIS 281100
TAFDIK
TAF
KDIK 281124Z 2812/2912 19007KT P6SM VCFG SCT003 SCT090
     FM281600 20008KT P6SM FEW090
     FM282000 28008KT P6SM FEW060
     FM290300 22006KT P6SM BKN080
     FM290900 28007KT P6SM BKN080=

USA.gov is the U.S. government's official web portal to all federal, state and local government web resources and services.